createdAt,value
2023-03-22T00:01:25.647Z,67.40
2023-03-22T00:03:52.977Z,68.04
2023-03-22T00:06:20.355Z,67.76
2023-03-22T00:08:51.277Z,68.26
2023-03-22T00:11:19.863Z,67.84
2023-03-22T00:13:47.167Z,68.50
2023-03-22T00:16:15.381Z,68.52
2023-03-22T00:18:42.403Z,68.37
2023-03-22T00:21:15.326Z,68.52
2023-03-22T00:23:42.376Z,68.03
2023-03-22T00:26:11.974Z,68.60
2023-03-22T00:28:39.273Z,68.86
2023-03-22T00:31:07.284Z,68.00
2023-03-22T00:33:35.276Z,68.54
2023-03-22T00:36:09.570Z,68.79
2023-03-22T00:38:45.143Z,68.67
2023-03-22T00:41:21.865Z,67.90
2023-03-22T00:43:50.794Z,68.38
2023-03-22T00:46:19.948Z,68.30
2023-03-22T00:48:47.733Z,68.70
2023-03-22T00:51:16.196Z,68.86
2023-03-22T00:53:43.985Z,68.73
2023-03-22T00:56:15.821Z,68.49
2023-03-22T00:58:55.065Z,69.07
2023-03-22T01:01:22.064Z,69.52
2023-03-22T01:03:50.546Z,69.03
2023-03-22T01:06:17.902Z,69.03
2023-03-22T01:08:45.938Z,69.45
2023-03-22T01:11:13.052Z,69.36
2023-03-22T01:13:41.735Z,69.54
2023-03-22T01:16:10.083Z,69.81
2023-03-22T01:18:37.687Z,69.48
2023-03-22T01:21:06.241Z,69.52
2023-03-22T01:23:33.360Z,69.29
2023-03-22T01:26:01.290Z,69.73
2023-03-22T01:28:29.407Z,69.57
2023-03-22T01:31:00.436Z,68.88
2023-03-22T01:33:27.332Z,69.56
2023-03-22T01:35:54.360Z,69.54
2023-03-22T01:38:22.169Z,69.36
2023-03-22T01:40:54.127Z,69.02
2023-03-22T01:43:21.619Z,68.67
2023-03-22T01:45:50.737Z,68.65
2023-03-22T01:48:35.839Z,69.54
2023-03-22T01:51:13.703Z,69.63
2023-03-22T01:54:06.383Z,69.67
2023-03-22T01:56:39.884Z,69.18
2023-03-22T01:59:11.838Z,68.80
2023-03-22T02:02:00.131Z,69.50
2023-03-22T02:04:34.080Z,69.34
2023-03-22T02:07:10.104Z,69.39
2023-03-22T02:09:42.289Z,69.16
2023-03-22T02:12:45.173Z,69.94
2023-03-22T02:15:39.946Z,70.01
2023-03-22T02:18:35.093Z,69.84
2023-03-22T02:21:41.814Z,69.92
2023-03-22T02:25:01.584Z,69.52
2023-03-22T02:27:52.589Z,69.15
2023-03-22T02:30:46.630Z,69.69
2023-03-22T02:33:51.658Z,69.49
2023-03-22T02:37:03.351Z,69.24
2023-03-22T02:39:49.964Z,69.57
2023-03-22T02:42:25.459Z,69.13
2023-03-22T02:45:02.036Z,69.28
2023-03-22T02:48:13.555Z,69.28
2023-03-22T02:50:56.501Z,69.27
2023-03-22T02:54:08.169Z,69.49
2023-03-22T02:57:02.106Z,69.02
2023-03-22T02:59:33.320Z,69.38
2023-03-22T03:02:03.727Z,69.11
2023-03-22T03:04:40.115Z,68.80
2023-03-22T03:07:13.013Z,69.25
2023-03-22T03:09:42.805Z,69.48
2023-03-22T03:12:30.218Z,69.11
2023-03-22T03:14:57.651Z,69.47
2023-03-22T03:18:24.266Z,69.07
2023-03-22T03:21:03.165Z,69.42
2023-03-22T03:24:05.644Z,68.84
2023-03-22T03:26:51.722Z,68.94
2023-03-22T03:29:37.110Z,68.81
2023-03-22T03:32:31.453Z,68.78
2023-03-22T03:35:07.613Z,69.20
2023-03-22T03:37:39.865Z,69.32
2023-03-22T03:40:14.474Z,69.07
2023-03-22T03:42:49.022Z,69.01
2023-03-22T03:45:18.354Z,69.37
2023-03-22T03:47:48.029Z,69.03
2023-03-22T03:50:16.439Z,68.61
2023-03-22T03:52:43.471Z,68.85
2023-03-22T03:55:10.906Z,68.89
2023-03-22T03:57:37.853Z,68.73
2023-03-22T04:00:06.398Z,68.58
2023-03-22T04:02:51.967Z,68.56
2023-03-22T04:05:54.305Z,68.48
2023-03-22T04:08:22.295Z,68.89
2023-03-22T04:10:51.710Z,68.59
2023-03-22T04:13:21.527Z,68.65
2023-03-22T04:15:54.451Z,68.97
2023-03-22T04:18:21.403Z,68.87
2023-03-22T04:20:49.368Z,68.85
2023-03-22T04:23:17.221Z,68.89
2023-03-22T04:25:50.051Z,68.89
2023-03-22T04:28:22.080Z,68.39
2023-03-22T04:30:52.387Z,68.35
2023-03-22T04:33:46.784Z,68.55
2023-03-22T04:36:19.634Z,68.64
2023-03-22T04:39:11.732Z,68.25
2023-03-22T04:41:40.818Z,68.45
2023-03-22T04:44:08.151Z,67.90
2023-03-22T04:46:39.150Z,68.10
2023-03-22T04:49:07.408Z,68.07
2023-03-22T04:51:38.123Z,68.18
2023-03-22T04:54:18.039Z,67.95
2023-03-22T04:56:45.775Z,67.85
2023-03-22T04:59:15.177Z,67.88
2023-03-22T05:01:42.531Z,68.13
2023-03-22T05:04:15.521Z,67.92
2023-03-22T05:06:42.916Z,68.14
2023-03-22T05:09:25.401Z,68.08
2023-03-22T05:11:54.018Z,67.96
2023-03-22T05:14:31.270Z,67.98
2023-03-22T05:16:58.521Z,68.18
2023-03-22T05:19:26.082Z,67.97
2023-03-22T05:21:58.151Z,68.12
2023-03-22T05:24:34.043Z,67.32
2023-03-22T05:27:01.359Z,68.08
2023-03-22T05:29:28.816Z,67.73
2023-03-22T05:32:07.165Z,67.82
2023-03-22T05:34:35.457Z,67.83
2023-03-22T05:37:11.461Z,68.13
2023-03-22T05:40:05.505Z,68.15
2023-03-22T05:42:37.052Z,68.77
2023-03-22T05:45:13.312Z,68.89
2023-03-22T05:47:42.972Z,68.38
2023-03-22T05:50:18.375Z,68.28
2023-03-22T05:52:45.948Z,68.73
2023-03-22T05:55:23.148Z,68.34
2023-03-22T05:57:56.473Z,68.29
2023-03-22T06:00:25.440Z,68.61
2023-03-22T06:03:18.487Z,68.56
2023-03-22T06:05:51.190Z,68.45
2023-03-22T06:08:26.046Z,68.49
2023-03-22T06:10:54.281Z,68.25
2023-03-22T06:13:21.880Z,69.13
2023-03-22T06:15:49.357Z,68.53
2023-03-22T06:18:22.768Z,68.16
2023-03-22T06:20:57.828Z,68.88
2023-03-22T06:23:25.223Z,68.54
2023-03-22T06:25:53.046Z,68.45
2023-03-22T06:28:20.160Z,68.97
2023-03-22T06:30:50.969Z,68.36
2023-03-22T06:33:40.349Z,68.65
2023-03-22T06:36:22.623Z,68.78
2023-03-22T06:39:12.685Z,68.45
2023-03-22T06:41:43.319Z,69.16
2023-03-22T06:44:10.497Z,68.45
2023-03-22T06:46:52.313Z,69.04
2023-03-22T06:49:38.085Z,69.04
2023-03-22T06:52:05.622Z,68.62
2023-03-22T06:54:34.366Z,68.87
2023-03-22T06:57:01.545Z,69.07
2023-03-22T06:59:28.759Z,68.96
2023-03-22T07:01:55.778Z,69.13
2023-03-22T07:04:24.017Z,68.91
2023-03-22T07:06:51.211Z,69.01
2023-03-22T07:09:18.448Z,69.01
2023-03-22T07:11:48.137Z,69.06
2023-03-22T07:14:15.875Z,69.45
2023-03-22T07:16:59.441Z,69.43
2023-03-22T07:19:28.696Z,68.96
2023-03-22T07:21:56.445Z,69.51
2023-03-22T07:24:24.136Z,69.29
2023-03-22T07:26:51.265Z,68.90
2023-03-22T07:29:22.649Z,69.38
2023-03-22T07:31:50.198Z,69.41
2023-03-22T07:34:23.574Z,69.12
2023-03-22T07:37:05.324Z,69.02
2023-03-22T07:39:33.124Z,69.49
2023-03-22T07:42:00.197Z,69.63
2023-03-22T07:44:49.606Z,69.29
2023-03-22T07:47:30.826Z,69.41
2023-03-22T07:50:23.781Z,69.51
2023-03-22T07:52:55.321Z,69.27
2023-03-22T07:55:22.273Z,69.65
2023-03-22T07:57:49.232Z,69.48
2023-03-22T08:00:17.171Z,69.56
2023-03-22T08:02:49.879Z,69.60
2023-03-22T08:05:42.587Z,69.46
2023-03-22T08:08:13.489Z,69.31
2023-03-22T08:10:40.867Z,69.72
2023-03-22T08:13:08.024Z,69.54
2023-03-22T08:15:37.388Z,69.82
2023-03-22T08:18:04.935Z,69.06
2023-03-22T08:20:35.777Z,69.79
2023-03-22T08:23:11.230Z,69.71
2023-03-22T08:26:01.217Z,69.42
2023-03-22T08:28:28.269Z,69.53
2023-03-22T08:30:55.317Z,68.91
2023-03-22T08:33:23.688Z,69.40
2023-03-22T08:35:51.058Z,69.49
2023-03-22T08:38:19.490Z,69.36
2023-03-22T08:40:50.181Z,69.09
2023-03-22T08:43:21.628Z,68.71
2023-03-22T08:45:48.692Z,68.47
2023-03-22T08:48:17.233Z,69.18
2023-03-22T08:51:06.315Z,68.89
2023-03-22T08:53:49.226Z,68.44
2023-03-22T08:56:45.324Z,68.49
2023-03-22T08:59:23.340Z,69.45
2023-03-22T09:02:16.328Z,68.90
2023-03-22T09:04:43.543Z,68.49
2023-03-22T09:07:10.998Z,68.34
2023-03-22T09:09:38.613Z,67.90
2023-03-22T09:12:06.110Z,68.23
2023-03-22T09:14:35.927Z,68.33
2023-03-22T09:17:04.250Z,67.06
2023-03-22T09:19:31.620Z,67.81
2023-03-22T09:21:58.765Z,67.73
2023-03-22T09:24:34.161Z,67.89
2023-03-22T09:27:03.405Z,67.73
2023-03-22T09:29:30.872Z,65.54
2023-03-22T09:31:59.195Z,65.76
2023-03-22T09:34:31.922Z,66.13
2023-03-22T09:37:02.159Z,66.23
2023-03-22T09:39:38.317Z,64.63
2023-03-22T09:42:25.550Z,65.59
2023-03-22T09:44:53.489Z,65.88
2023-03-22T09:47:48.739Z,66.58
2023-03-22T09:50:22.311Z,65.48
2023-03-22T09:52:50.868Z,64.90
2023-03-22T09:55:41.543Z,66.17
2023-03-22T09:58:31.975Z,66.24
2023-03-22T10:01:15.478Z,64.15
2023-03-22T10:04:42.960Z,65.85
2023-03-22T10:07:34.400Z,64.49
2023-03-22T10:10:17.966Z,64.76
2023-03-22T10:13:48.383Z,65.53
2023-03-22T10:16:33.076Z,65.18
2023-03-22T10:19:17.235Z,64.79
2023-03-22T10:21:48.199Z,64.06
2023-03-22T10:24:27.056Z,64.61
2023-03-22T10:26:54.380Z,62.76
2023-03-22T10:29:36.519Z,61.59
2023-03-22T10:32:14.942Z,62.41
2023-03-22T10:34:43.416Z,62.62
2023-03-22T10:37:20.489Z,62.60
2023-03-22T10:39:55.720Z,62.82
2023-03-22T10:42:27.836Z,62.76
2023-03-22T10:45:21.824Z,62.83
2023-03-22T10:48:22.311Z,61.90
2023-03-22T10:50:49.290Z,61.56
2023-03-22T10:53:44.013Z,61.97
2023-03-22T10:56:19.989Z,60.56
2023-03-22T10:58:50.073Z,59.95
2023-03-22T11:01:32.147Z,60.37
2023-03-22T11:04:03.927Z,61.48
2023-03-22T11:06:36.261Z,60.86
2023-03-22T11:09:18.601Z,62.63
2023-03-22T11:11:54.254Z,61.35
2023-03-22T11:14:44.157Z,59.95
2023-03-22T11:17:14.826Z,60.48
2023-03-22T11:20:01.263Z,60.75
2023-03-22T11:22:40.156Z,59.08
2023-03-22T11:25:27.873Z,60.19
2023-03-22T11:28:19.846Z,59.76
2023-03-22T11:31:18.031Z,60.85
2023-03-22T11:34:01.535Z,59.85
2023-03-22T11:36:29.647Z,58.80
2023-03-22T11:39:07.783Z,59.76
2023-03-22T11:41:37.430Z,58.35
2023-03-22T11:44:17.072Z,58.06
2023-03-22T11:46:58.037Z,58.35
2023-03-22T11:49:39.761Z,57.86
2023-03-22T11:52:19.678Z,59.16
2023-03-22T11:54:47.782Z,58.50
2023-03-22T11:57:25.165Z,58.22
2023-03-22T12:00:20.508Z,60.79
2023-03-22T12:03:13.817Z,58.27
2023-03-22T12:05:44.661Z,55.92
2023-03-22T12:08:28.380Z,55.74
2023-03-22T12:11:14.445Z,58.36
2023-03-22T12:14:00.644Z,56.10
2023-03-22T12:16:44.576Z,53.82
2023-03-22T12:19:49.794Z,53.99
2023-03-22T12:22:24.689Z,54.90
2023-03-22T12:24:51.671Z,53.96
2023-03-22T12:27:31.632Z,55.29
2023-03-22T12:30:08.371Z,54.20
2023-03-22T12:32:43.697Z,53.63
2023-03-22T12:35:25.001Z,53.02
2023-03-22T12:37:58.036Z,52.35
2023-03-22T12:40:31.693Z,53.42
2023-03-22T12:43:54.296Z,55.85
2023-03-22T12:46:36.196Z,53.06
2023-03-22T12:49:48.858Z,55.08
2023-03-22T12:52:44.676Z,55.85
2023-03-22T12:55:27.621Z,53.77
2023-03-22T12:57:55.588Z,53.26
2023-03-22T13:00:29.152Z,53.44
2023-03-22T13:03:10.387Z,54.04
2023-03-22T13:05:37.978Z,52.67
2023-03-22T13:08:05.680Z,50.08
2023-03-22T13:10:32.841Z,50.82
2023-03-22T13:13:24.138Z,52.60
2023-03-22T13:16:24.479Z,52.17
2023-03-22T13:18:52.550Z,52.65
2023-03-22T13:21:26.428Z,53.07
2023-03-22T13:24:05.759Z,55.62
2023-03-22T13:27:09.005Z,55.12
2023-03-22T13:29:38.786Z,54.91
2023-03-22T13:32:30.410Z,55.09
2023-03-22T13:34:57.733Z,51.05
2023-03-22T13:37:31.952Z,47.44
2023-03-22T13:40:02.061Z,49.65
2023-03-22T13:42:37.930Z,49.50
2023-03-22T13:45:27.077Z,49.71
2023-03-22T13:48:29.639Z,50.16
2023-03-22T13:50:58.786Z,49.90
2023-03-22T13:53:30.926Z,51.88
2023-03-22T13:56:07.232Z,50.07
2023-03-22T13:58:50.508Z,50.48
2023-03-22T14:01:36.177Z,51.29
2023-03-22T14:04:13.868Z,50.29
2023-03-22T14:06:59.821Z,48.83
2023-03-22T14:09:34.517Z,49.47
2023-03-22T14:12:28.378Z,50.55
2023-03-22T14:15:03.860Z,50.11
2023-03-22T14:17:51.638Z,50.03
2023-03-22T14:20:22.681Z,49.01
